LTBI/ESK METAR and TAF weather

Enter ICAO airport designator
Station Type Date Time Source
LTBI METAR 2019/07/18 10:50 UTC NOAA

LTBI 181050Z 33009KT 280V010 9999 BKN030 22/14 Q1012 NOSIG RMK RWY08 35008KT 310V050


Station Type Date Time Source
LTBI Decoded METAR 2019/07/18 10:50 UTC NOAA

Eskisehir, Turkey (LTBI) 39-47N 030-34E 785M
Jul 18, 2019 - 06:50 AM EDT / 2019.07.18 1050 UTC
Wind: from the NNW (330 degrees) at 10 MPH (9 KT) (direction variable):0
Visibility: greater than 7 mile(s):0
Sky conditions: mostly cloudy
Temperature: 71 F (22 C)
Dew Point: 57 F (14 C)
Relative Humidity: 60%
Pressure (altimeter): 29.88 in. Hg (1012 hPa)
ob: LTBI 181050Z 33009KT 280V010 9999 BKN030 22/14 Q1012 NOSIG RMK RWY08 35008KT 310V050
cycle: 11

Station Type Date Time Source
LTBI TAF 2012/05/11 09:09 UTC NOAA

TAF LTBI 110740Z 1109/1121 VRB02KT 6000 -SHRA BKN030 BKN090
TEMPO 1112/1116 33015KT 4000 -TSRA FEW025CB BKN030

Example: see airport list